Foret Viam-Lestard (19) - H

Date : 30/06/2012
Distance : 3,900 km

Place Nom Licence Catégorie Club Temps min/km CN à J-60 Points Différence Nouveau CN
1 EVEN Gabriel 2789 H70 2206BR 0:51:02 13'05 5462 4710 -752 5391
2 DEVILLE Nelly 2401 D60 5402LO 0:54:21 13'56 4647 4423 -224 4587
3 HABERKORN Didier 2716 H70 2105BO 0:54:21 13'56 3614 4423 +809 3915
4 SINIBALDI Marc 1347 H70 3801RA 0:54:52 14'04 3894 4381 +487 4587
5 DUBROCA Monique 633 D65 3308AQ 0:55:03 14'06 4296 4367 +71 4384
6 HELIOT Claude 2349 H70 6906RA 0:57:42 14'47 2691 4166 +1475 3577
7 CROCHET Gerard 2817 H70 1705PC 0:58:39 15'02 4173 4099 -74 4246
8 GERBAUT J-Pierre 962 H70 4012AQ 1:01:08 15'40 4057 3932 -125 3996
9 CHALOPIN Catherine 3674 D60 2105BO 1:01:21 15'43 3738 3918 +180 3732
10 DOMENICI J-Claude 1052 H70 1705PC 1:01:46 15'50 3776 3892 +116 3808
11 ROBERT Francoise 6491 D60 6913RA 1:03:59 16'24 4061 3757 -304 4088
12 GANDON J-Claude 249 H70 6906RA 1:04:04 16'25 4025 3752 -273 4043
13 LARMINACH Andre 646 H70 3308AQ 1:06:00 16'55 4241 3642 -599 4122
14 MOULIERE M-Bernadette 2888 D65 0207PI 1:07:54 17'24 3446 3540 +94 3445
15 JEANPIERRE M-Therese 3302 D65 8809LO 1:09:29 17'48 3018 3459 +441 3138
16 ANTOINE Regis 1276 H70 7108BO 1:10:37 18'06 3578 3404 -174 3624
17 FRANTZ Francoise 6886 D65 2904BR 1:12:14 18'31 3757 3328 -429 3757
18 CREUSAT Fanny 25989 D40 8809LO 1:15:29 19'21 0 3185 3071
19 ENARD Monique 2664 D60 2101BO 1:16:03 19'30 3035 3161 +126 3526
20 RICHARD Nicole 14245 D60 0207PI 1:16:31 19'37 3371 3142 -229 3401
21 ANGLADE Françoise 22255 D45 5604BR 1:16:40 19'39 3582 3135 -447 3514
22 BEAUVISAGE Fabienne 13740 D45 7807IF 1:18:54 20'13 2992 3047 +55 3013
23 ELIAS Jean-claude 24745 H70 1307PR 1:20:25 20'37 2923 2989 +66 3369
24 ROLLET Marie-Madeleine 2413 D65 5415LO 1:20:43 20'41 2264 2978 +714 2662
25 GENIN Véronique 22367 D35 3318AQ 1:21:02 20'46 2685 2966 +281 2835
26 GROSJEAN A-Marie 12059 D70 6913RA 1:21:34 20'54 2749 2947 +198 2845
27 KIEFFER Mireille 2680 D65 2101BO 1:25:13 21'51 2687 2821 +134 2716
28 PROST Gisele 2182 D60 9307IF 1:28:38 22'43 2753 2712 -41 2638
29 ABISSE Gisele 701 D65 2508FC 1:31:10 23'22 3490 2637 -853 3413
30 PEETERS Simone 295 D70 7305RA 1:32:09 23'37 2413 2609 +196 2219
31 DRAULT J-Raymond 4234 H70 8702LI 1:38:24 25'13 2735 2443 -292 2784
32 LARMINACH Genevieve 647 D65 3308AQ 1:38:49 25'20 2421 2433 +12 2423
33 VILLATTE Fabienne 24356 D40 2406AQ 1:39:41 25'33 2335 2411 +76 2374
34 PROST Daniel 2181 H70 9307IF 1:48:43 27'52 2807 2211 -596 2907
35 DENIS Martine 12377 D65 9307IF 1:55:01 29'29 2790 2090 -700 2756
36 DODIN Genevieve 4392 D60 8809LO 1:59:37 30'40 2445 2010 -435 2406
37 THIEBAULT M-Paule 4490 D60 6804AL 2:05:27 32'10 2337 1916 -421 2384
38 ALLANCON Claudine 14632 D60 2906BR 2:08:13 32'52 2077 1875 -202 2008
39 LUDEWIG-JAMES Carol 15894 D70 5907NO 2:18:07 35'24 2207 1740 -467 2136
BAUDOIN Annie 16634 D60 0615AZ abandon None 2949 0 3174
FINO Béatrice 1674 D40 0111RA abandon None 2375 0 2486